Baltic Betina — 9HDW8 — position and weather

sailwx.info

Track history (hours):
 
Tides and Currents Weather Stations Pressure Air Temp Water Temp Dewpoint Dewpoint Depression Visibility Wind Speed Wind Dir Waves Ship Positions

Baltic Betina

Last reported at 2014-Oct-31 00:33 UTC. Time now 2014-Nov-01 06:45 UTC.
Position N 59°18' E 005°20'.

Length 90 m; draft 4.1 m.

Type: Ship. MMSI: 215869000.

Date/timePositionNaut miles runAvg speedWind from/ knotsBaromVisibWave heightAir tempDewpointWater temp
2014-Oct-31 00:33N 59°18' E 005°20'1111.0
2014-Oct-30 23:33N 59°08' E 005°27'1110.8
2014-Oct-30 22:33N 59°02' E 005°45'1010.3
2014-Oct-30 21:33N 58°52' E 005°45'0 0.5
2014-Oct-30 20:33N 58°51' E 005°45'0 0.0
2014-Oct-30 19:34N 58°51' E 005°45'0 0.0
2014-Oct-30 18:34N 58°51' E 005°45'0 0.1
2014-Oct-30 17:33N 58°51' E 005°45'1010.4
2014-Oct-30 16:33N 59°02' E 005°47'8 7.6
2014-Oct-30 15:34N 58°59' E 005°33'1111.4
2014-Oct-30 14:33N 58°48' E 005°28'1110.4
2014-Oct-30 13:29N 58°37' E 005°32'1111.8
2014-Oct-30 12:33N 58°29' E 005°45'1212.1
2014-Oct-30 11:33N 58°20' E 006°01'1312.7
2014-Oct-30 10:33N 58°12' E 006°19'131 8.2
2014-Oct-29 18:33N 58°56' E 010°15'1110.9
2014-Oct-29 17:33N 58°60' E 010°35'1010.1
2014-Oct-29 16:33N 59°01' E 010°54'9 8.8
2014-Oct-29 15:33N 59°04' E 011°10'3 1.1
2014-Oct-29 13:09N 59°05' E 011°14'8 7.3
2014-Oct-29 12:07N 58°59' E 011°05'610.5
2014-Oct-29 11:33N 58°54' E 011°05'1111.2
2014-Oct-29 10:34N 58°42' E 011°04'1111.4
2014-Oct-29 09:34N 58°31' E 011°07'1110.8
2014-Oct-29 08:34N 58°20' E 011°08'1111.3
2014-Oct-29 07:34N 58°09' E 011°14'1111.1
2014-Oct-29 06:34N 57°58' E 011°18'1110.7
2014-Oct-29 05:33N 57°48' E 011°22'1111.0
2014-Oct-29 04:33N 57°38' E 011°29'1111.5
2014-Oct-29 03:33N 57°28' E 011°40'1110.9
2014-Oct-29 02:33N 57°18' E 011°49'1110.8
2014-Oct-29 01:33N 57°08' E 011°58'2510.9
2014-Oct-28 23:17N 56°45' E 012°14'811.6
2014-Oct-28 22:33N 56°37' E 012°17'1111.4
2014-Oct-28 21:33N 56°26' E 012°22'1111.4
2014-Oct-28 20:34N 56°15' E 012°27'1211.8
2014-Oct-28 19:33N 56°05' E 012°37'1111.4
2014-Oct-28 18:33N 55°54' E 012°44'1111.5
2014-Oct-28 17:33N 55°42' E 012°41'1110.7
2014-Oct-28 16:33N 55°32' E 012°42'1211.7
2014-Oct-28 15:33N 55°20' E 012°41'1110.6
2014-Oct-28 14:33N 55°16' E 012°58'1111.3
2014-Oct-28 13:34N 55°16' E 013°18'1111.2
2014-Oct-28 12:34N 55°15' E 013°38'1111.1
2014-Oct-28 11:33N 55°15' E 013°57'1110.9
2014-Oct-28 10:33N 55°14' E 014°16'1010.4
2014-Oct-28 09:34N 55°22' E 014°28'1010.0
2014-Oct-28 08:33N 55°26' E 014°45'1111.2
2014-Oct-28 07:33N 55°27' E 015°04'1111.3
2014-Oct-28 06:33N 55°28' E 015°24'1211.1
2014-Oct-28 05:31N 55°29' E 015°45'2410.7
2014-Oct-28 03:17N 55°31' E 016°27'910.5
2014-Oct-28 02:24N 55°32' E 016°43'1010.5
2014-Oct-28 01:29N 55°33' E 017°00'138 4.7
2014-Oct-26 20:10N 55°44' E 021°03'219 8.4
2014-Oct-25 18:03N 59°22' E 021°24'3 6.1
2014-Oct-25 17:33N 59°25' E 021°23'5 5.2
2014-Oct-25 16:33N 59°30' E 021°21'5 5.1
2014-Oct-25 15:33N 59°36' E 021°20'5 4.8
2014-Oct-25 14:33N 59°40' E 021°20'5 5.0
2014-Oct-25 13:34N 59°45' E 021°21'8 8.3
2014-Oct-25 12:34N 59°52' E 021°30'  
2014-Oct-21 10:34N 57°14' E 017°39'8311.3
2014-Oct-21 03:11N 55°59' E 016°32'711.1
2014-Oct-21 02:33N 55°56' E 016°21'  
Track history (hours):
 
Tides and Currents Weather Stations Pressure Air Temp Water Temp Dewpoint Dewpoint Depression Visibility Wind Speed Wind Dir Waves Ship Positions

Baltic Betina

Last reported at 2014-Oct-31 00:33 UTC. Time now 2014-Nov-01 06:45 UTC.
Position N 59°18' E 005°20'.

Length 90 m; draft 4.1 m.

Type: Ship. MMSI: 215869000.

Date/timePositionNaut miles runAvg speedWind from/ knotsBaromVisibWave heightAir tempDewpointWater temp
2014-Oct-31 00:33N 59°18' E 005°20'1111.0
2014-Oct-30 23:33N 59°08' E 005°27'1110.8
2014-Oct-30 22:33N 59°02' E 005°45'1010.3
2014-Oct-30 21:33N 58°52' E 005°45'0 0.5
2014-Oct-30 20:33N 58°51' E 005°45'0 0.0
2014-Oct-30 19:34N 58°51' E 005°45'0 0.0
2014-Oct-30 18:34N 58°51' E 005°45'0 0.1
2014-Oct-30 17:33N 58°51' E 005°45'1010.4
2014-Oct-30 16:33N 59°02' E 005°47'8 7.6
2014-Oct-30 15:34N 58°59' E 005°33'1111.4
2014-Oct-30 14:33N 58°48' E 005°28'1110.4
2014-Oct-30 13:29N 58°37' E 005°32'1111.8
2014-Oct-30 12:33N 58°29' E 005°45'1212.1
2014-Oct-30 11:33N 58°20' E 006°01'1312.7
2014-Oct-30 10:33N 58°12' E 006°19'131 8.2
2014-Oct-29 18:33N 58°56' E 010°15'1110.9
2014-Oct-29 17:33N 58°60' E 010°35'1010.1
2014-Oct-29 16:33N 59°01' E 010°54'9 8.8
2014-Oct-29 15:33N 59°04' E 011°10'3 1.1
2014-Oct-29 13:09N 59°05' E 011°14'8 7.3
2014-Oct-29 12:07N 58°59' E 011°05'610.5
2014-Oct-29 11:33N 58°54' E 011°05'1111.2
2014-Oct-29 10:34N 58°42' E 011°04'1111.4
2014-Oct-29 09:34N 58°31' E 011°07'1110.8
2014-Oct-29 08:34N 58°20' E 011°08'1111.3
2014-Oct-29 07:34N 58°09' E 011°14'1111.1
2014-Oct-29 06:34N 57°58' E 011°18'1110.7
2014-Oct-29 05:33N 57°48' E 011°22'1111.0
2014-Oct-29 04:33N 57°38' E 011°29'1111.5
2014-Oct-29 03:33N 57°28' E 011°40'1110.9
2014-Oct-29 02:33N 57°18' E 011°49'1110.8
2014-Oct-29 01:33N 57°08' E 011°58'2510.9
2014-Oct-28 23:17N 56°45' E 012°14'811.6
2014-Oct-28 22:33N 56°37' E 012°17'1111.4
2014-Oct-28 21:33N 56°26' E 012°22'1111.4
2014-Oct-28 20:34N 56°15' E 012°27'1211.8
2014-Oct-28 19:33N 56°05' E 012°37'1111.4
2014-Oct-28 18:33N 55°54' E 012°44'1111.5
2014-Oct-28 17:33N 55°42' E 012°41'1110.7
2014-Oct-28 16:33N 55°32' E 012°42'1211.7
2014-Oct-28 15:33N 55°20' E 012°41'1110.6
2014-Oct-28 14:33N 55°16' E 012°58'1111.3
2014-Oct-28 13:34N 55°16' E 013°18'1111.2
2014-Oct-28 12:34N 55°15' E 013°38'1111.1
2014-Oct-28 11:33N 55°15' E 013°57'1110.9
2014-Oct-28 10:33N 55°14' E 014°16'1010.4
2014-Oct-28 09:34N 55°22' E 014°28'1010.0
2014-Oct-28 08:33N 55°26' E 014°45'1111.2
2014-Oct-28 07:33N 55°27' E 015°04'1111.3
2014-Oct-28 06:33N 55°28' E 015°24'1211.1
2014-Oct-28 05:31N 55°29' E 015°45'2410.7
2014-Oct-28 03:17N 55°31' E 016°27'910.5
2014-Oct-28 02:24N 55°32' E 016°43'1010.5
2014-Oct-28 01:29N 55°33' E 017°00'138 4.7
2014-Oct-26 20:10N 55°44' E 021°03'219 8.4
2014-Oct-25 18:03N 59°22' E 021°24'3 6.1
2014-Oct-25 17:33N 59°25' E 021°23'5 5.2
2014-Oct-25 16:33N 59°30' E 021°21'5 5.1
2014-Oct-25 15:33N 59°36' E 021°20'5 4.8
2014-Oct-25 14:33N 59°40' E 021°20'5 5.0
2014-Oct-25 13:34N 59°45' E 021°21'8 8.3
2014-Oct-25 12:34N 59°52' E 021°30'  
2014-Oct-21 10:34N 57°14' E 017°39'8311.3
2014-Oct-21 03:11N 55°59' E 016°32'711.1
2014-Oct-21 02:33N 55°56' E 016°21'  

Dump ship's entire track history